Terminal Aerodrome Forecast
Issued by NWS

Home | Current Version | Previous Version | Text Only | Print | Product List | Glossary On
Versions: 1 2 3 4 5 6 7 8 9 10 11 12 13 14
000
FTUS44 KLZK 191121
TAFPBF
TAF
KPBF 191121Z 1912/2012 VRB03KT 1/2SM FG SCT002
      TEMPO 1912/1914 3SM BR SCT002
     FM191400 15007KT P6SM BKN250
     FM200000 VRB03KT P6SM BKN250=

USA.gov is the U.S. government's official web portal to all federal, state and local government web resources and services.